sensor_id;sensor_type;location;lat;lon;timestamp;pressure;altitude;pressure_sealevel;temperature;humidity
43364;BME280;40636;52.424;-1.948;2023-03-01T00:01:26;101765.47;;;4.59;100.00
43364;BME280;40636;52.424;-1.948;2023-03-01T00:03:54;101762.38;;;4.54;100.00
43364;BME280;40636;52.424;-1.948;2023-03-01T00:06:21;101759.47;;;4.47;100.00
43364;BME280;40636;52.424;-1.948;2023-03-01T00:08:48;101752.69;;;4.51;100.00
43364;BME280;40636;52.424;-1.948;2023-03-01T00:13:48;101759.81;;;4.44;100.00
43364;BME280;40636;52.424;-1.948;2023-03-01T00:16:21;101762.38;;;4.46;100.00
43364;BME280;40636;52.424;-1.948;2023-03-01T00:18:48;101753.69;;;4.42;100.00
43364;BME280;40636;52.424;-1.948;2023-03-01T00:21:15;101762.16;;;4.39;100.00
43364;BME280;40636;52.424;-1.948;2023-03-01T00:23:42;101758.06;;;4.35;100.00
43364;BME280;40636;52.424;-1.948;2023-03-01T00:26:12;101757.94;;;4.37;100.00
43364;BME280;40636;52.424;-1.948;2023-03-01T00:28:39;101755.38;;;4.35;100.00
43364;BME280;40636;52.424;-1.948;2023-03-01T00:31:11;101756.75;;;4.39;100.00
43364;BME280;40636;52.424;-1.948;2023-03-01T00:33:38;101753.69;;;4.42;100.00
43364;BME280;40636;52.424;-1.948;2023-03-01T00:36:06;101753.53;;;4.44;100.00
43364;BME280;40636;52.424;-1.948;2023-03-01T00:38:41;101748.44;;;4.41;100.00
43364;BME280;40636;52.424;-1.948;2023-03-01T00:41:10;101747.59;;;4.48;100.00
43364;BME280;40636;52.424;-1.948;2023-03-01T00:43:38;101738.41;;;4.41;100.00
43364;BME280;40636;52.424;-1.948;2023-03-01T00:46:10;101744.19;;;4.46;100.00
43364;BME280;40636;52.424;-1.948;2023-03-01T00:48:37;101740.78;;;4.36;100.00
43364;BME280;40636;52.424;-1.948;2023-03-01T00:51:11;101739.06;;;4.35;100.00
43364;BME280;40636;52.424;-1.948;2023-03-01T00:53:38;101732.78;;;4.35;100.00
43364;BME280;40636;52.424;-1.948;2023-03-01T00:56:07;101736.00;;;4.38;100.00
43364;BME280;40636;52.424;-1.948;2023-03-01T00:58:34;101737.38;;;4.42;100.00
43364;BME280;40636;52.424;-1.948;2023-03-01T01:01:07;101728.88;;;4.37;100.00
43364;BME280;40636;52.424;-1.948;2023-03-01T01:03:46;101737.00;;;4.29;100.00
43364;BME280;40636;52.424;-1.948;2023-03-01T01:06:18;101736.34;;;4.35;100.00
43364;BME280;40636;52.424;-1.948;2023-03-01T01:08:46;101726.09;;;4.21;100.00
43364;BME280;40636;52.424;-1.948;2023-03-01T01:11:13;101727.63;;;4.15;100.00
43364;BME280;40636;52.424;-1.948;2023-03-01T01:13:40;101728.78;;;4.13;100.00
43364;BME280;40636;52.424;-1.948;2023-03-01T01:16:08;101726.91;;;4.05;100.00
43364;BME280;40636;52.424;-1.948;2023-03-01T01:18:35;101721.63;;;4.03;100.00
43364;BME280;40636;52.424;-1.948;2023-03-01T01:21:11;101710.28;;;4.00;100.00
43364;BME280;40636;52.424;-1.948;2023-03-01T01:23:39;101719.41;;;3.99;100.00
43364;BME280;40636;52.424;-1.948;2023-03-01T01:26:14;101715.03;;;4.06;100.00
43364;BME280;40636;52.424;-1.948;2023-03-01T01:28:41;101723.72;;;4.10;100.00
43364;BME280;40636;52.424;-1.948;2023-03-01T01:31:08;101715.88;;;4.06;100.00
43364;BME280;40636;52.424;-1.948;2023-03-01T01:33:36;101707.72;;;4.06;100.00
43364;BME280;40636;52.424;-1.948;2023-03-01T01:36:07;101712.81;;;4.01;100.00
43364;BME280;40636;52.424;-1.948;2023-03-01T01:38:35;101724.34;;;3.95;100.00
43364;BME280;40636;52.424;-1.948;2023-03-01T01:41:03;101716.50;;;3.92;100.00
43364;BME280;40636;52.424;-1.948;2023-03-01T01:43:34;101723.28;;;3.88;100.00
43364;BME280;40636;52.424;-1.948;2023-03-01T01:46:04;101707.00;;;3.88;100.00
43364;BME280;40636;52.424;-1.948;2023-03-01T01:48:41;101710.91;;;3.94;100.00
43364;BME280;40636;52.424;-1.948;2023-03-01T01:51:12;101708.69;;;3.89;100.00
43364;BME280;40636;52.424;-1.948;2023-03-01T01:53:39;101693.94;;;3.92;100.00
43364;BME280;40636;52.424;-1.948;2023-03-01T01:56:08;101703.47;;;3.96;100.00
43364;BME280;40636;52.424;-1.948;2023-03-01T01:58:38;101695.97;;;3.98;100.00
43364;BME280;40636;52.424;-1.948;2023-03-01T02:01:07;101703.47;;;4.04;100.00
43364;BME280;40636;52.424;-1.948;2023-03-01T02:03:37;101699.59;;;4.06;100.00
43364;BME280;40636;52.424;-1.948;2023-03-01T02:08:42;101701.13;;;4.09;100.00
43364;BME280;40636;52.424;-1.948;2023-03-01T02:11:10;101693.13;;;4.07;100.00
43364;BME280;40636;52.424;-1.948;2023-03-01T02:13:37;101693.31;;;4.06;100.00
43364;BME280;40636;52.424;-1.948;2023-03-01T02:16:08;101686.53;;;4.10;100.00
43364;BME280;40636;52.424;-1.948;2023-03-01T02:18:38;101681.41;;;4.07;100.00
43364;BME280;40636;52.424;-1.948;2023-03-01T02:23:47;101679.53;;;4.07;100.00
43364;BME280;40636;52.424;-1.948;2023-03-01T02:26:40;101676.50;;;4.11;100.00
43364;BME280;40636;52.424;-1.948;2023-03-01T02:29:08;101675.47;;;4.12;100.00
43364;BME280;40636;52.424;-1.948;2023-03-01T02:31:35;101677.34;;;4.11;100.00
43364;BME280;40636;52.424;-1.948;2023-03-01T02:34:12;101666.66;;;4.10;100.00
43364;BME280;40636;52.424;-1.948;2023-03-01T02:36:46;101673.47;;;4.14;100.00
43364;BME280;40636;52.424;-1.948;2023-03-01T02:39:18;101672.09;;;4.10;100.00
43364;BME280;40636;52.424;-1.948;2023-03-01T02:41:56;101675.47;;;4.12;100.00
43364;BME280;40636;52.424;-1.948;2023-03-01T02:44:23;101666.31;;;4.13;100.00
43364;BME280;40636;52.424;-1.948;2023-03-01T02:46:52;101666.31;;;4.13;100.00
43364;BME280;40636;52.424;-1.948;2023-03-01T02:49:27;101664.28;;;4.15;100.00
43364;BME280;40636;52.424;-1.948;2023-03-01T02:57:16;101653.06;;;4.10;100.00
43364;BME280;40636;52.424;-1.948;2023-03-01T02:59:43;101652.38;;;4.07;100.00
43364;BME280;40636;52.424;-1.948;2023-03-01T03:02:24;101636.59;;;4.11;100.00
43364;BME280;40636;52.424;-1.948;2023-03-01T03:05:12;101641.38;;;4.09;100.00
43364;BME280;40636;52.424;-1.948;2023-03-01T03:07:41;101632.50;;;4.07;100.00
43364;BME280;40636;52.424;-1.948;2023-03-01T03:10:20;101635.75;;;4.11;100.00
43364;BME280;40636;52.424;-1.948;2023-03-01T03:12:58;101630.47;;;4.01;100.00
43364;BME280;40636;52.424;-1.948;2023-03-01T03:15:26;101643.72;;;4.12;100.00
43364;BME280;40636;52.424;-1.948;2023-03-01T03:17:53;101639.50;;;4.10;100.00
43364;BME280;40636;52.424;-1.948;2023-03-01T03:20:23;101636.25;;;4.06;100.00
43364;BME280;40636;52.424;-1.948;2023-03-01T03:22:52;101630.97;;;3.96;100.00
43364;BME280;40636;52.424;-1.948;2023-03-01T03:25:20;101638.78;;;3.99;100.00
43364;BME280;40636;52.424;-1.948;2023-03-01T03:27:49;101638.44;;;4.02;100.00
43364;BME280;40636;52.424;-1.948;2023-03-01T03:30:18;101635.41;;;4.05;100.00
43364;BME280;40636;52.424;-1.948;2023-03-01T03:32:46;101623.38;;;4.16;100.00
43364;BME280;40636;52.424;-1.948;2023-03-01T03:35:26;101623.88;;;4.12;100.00
43364;BME280;40636;52.424;-1.948;2023-03-01T03:37:54;101619.09;;;4.05;100.00
43364;BME280;40636;52.424;-1.948;2023-03-01T03:42:59;101609.41;;;4.03;100.00
43364;BME280;40636;52.424;-1.948;2023-03-01T03:45:27;101603.31;;;4.01;100.00
43364;BME280;40636;52.424;-1.948;2023-03-01T03:47:54;101614.69;;;3.96;100.00
43364;BME280;40636;52.424;-1.948;2023-03-01T03:50:20;101614.19;;;4.01;100.00
43364;BME280;40636;52.424;-1.948;2023-03-01T03:52:47;101604.69;;;4.05;100.00
43364;BME280;40636;52.424;-1.948;2023-03-01T03:55:14;101590.41;;;4.03;100.00
43364;BME280;40636;52.424;-1.948;2023-03-01T03:57:47;101594.31;;;4.08;100.00
43364;BME280;40636;52.424;-1.948;2023-03-01T04:00:20;101595.31;;;4.07;100.00
43364;BME280;40636;52.424;-1.948;2023-03-01T04:02:47;101595.19;;;4.09;100.00
43364;BME280;40636;52.424;-1.948;2023-03-01T04:05:16;101593.47;;;4.16;100.00
43364;BME280;40636;52.424;-1.948;2023-03-01T04:07:44;101584.81;;;4.13;100.00
43364;BME280;40636;52.424;-1.948;2023-03-01T04:10:14;101589.75;;;4.09;100.00
43364;BME280;40636;52.424;-1.948;2023-03-01T04:12:41;101597.72;;;4.11;100.00
43364;BME280;40636;52.424;-1.948;2023-03-01T04:15:11;101588.19;;;4.06;100.00
43364;BME280;40636;52.424;-1.948;2023-03-01T04:17:45;101587.16;;;3.99;100.00
43364;BME280;40636;52.424;-1.948;2023-03-01T04:20:16;101587.53;;;4.04;100.00
43364;BME280;40636;52.424;-1.948;2023-03-01T04:22:56;101588.03;;;4.08;100.00
43364;BME280;40636;52.424;-1.948;2023-03-01T04:25:34;101592.28;;;4.11;100.00
43364;BME280;40636;52.424;-1.948;2023-03-01T04:28:01;101595.00;;;4.11;100.00
43364;BME280;40636;52.424;-1.948;2023-03-01T04:30:28;101592.13;;;4.20;100.00
43364;BME280;40636;52.424;-1.948;2023-03-01T04:32:54;101586.16;;;4.17;100.00
43364;BME280;40636;52.424;-1.948;2023-03-01T04:35:21;101578.88;;;4.17;100.00
43364;BME280;40636;52.424;-1.948;2023-03-01T04:37:49;101580.56;;;4.10;100.00
43364;BME280;40636;52.424;-1.948;2023-03-01T04:40:15;101573.94;;;4.13;100.00
43364;BME280;40636;52.424;-1.948;2023-03-01T04:42:43;101581.09;;;4.14;100.00
43364;BME280;40636;52.424;-1.948;2023-03-01T04:45:09;101585.31;;;4.08;100.00
43364;BME280;40636;52.424;-1.948;2023-03-01T04:47:41;101581.59;;;4.09;100.00
43364;BME280;40636;52.424;-1.948;2023-03-01T04:50:10;101581.41;;;4.02;100.00
43364;BME280;40636;52.424;-1.948;2023-03-01T04:52:37;101590.22;;;3.96;100.00
43364;BME280;40636;52.424;-1.948;2023-03-01T04:55:04;101582.44;;;4.01;100.00
43364;BME280;40636;52.424;-1.948;2023-03-01T04:57:31;101585.31;;;4.00;100.00
43364;BME280;40636;52.424;-1.948;2023-03-01T04:59:58;101578.38;;;4.05;100.00
43364;BME280;40636;52.424;-1.948;2023-03-01T05:02:25;101574.47;;;4.00;100.00
43364;BME280;40636;52.424;-1.948;2023-03-01T05:04:52;101582.75;;;3.98;100.00
43364;BME280;40636;52.424;-1.948;2023-03-01T05:07:18;101580.56;;;4.02;100.00
43364;BME280;40636;52.424;-1.948;2023-03-01T05:09:46;101577.50;;;3.97;100.00
43364;BME280;40636;52.424;-1.948;2023-03-01T05:12:13;101579.53;;;4.03;100.00
43364;BME280;40636;52.424;-1.948;2023-03-01T05:14:41;101582.59;;;4.00;100.00
43364;BME280;40636;52.424;-1.948;2023-03-01T05:17:08;101579.38;;;4.04;100.00
43364;BME280;40636;52.424;-1.948;2023-03-01T05:19:34;101576.66;;;4.04;100.00
43364;BME280;40636;52.424;-1.948;2023-03-01T05:22:01;101575.78;;;4.04;100.00
43364;BME280;40636;52.424;-1.948;2023-03-01T05:24:29;101576.28;;;3.99;100.00
43364;BME280;40636;52.424;-1.948;2023-03-01T05:26:57;101567.16;;;4.00;100.00
43364;BME280;40636;52.424;-1.948;2023-03-01T05:29:25;101563.91;;;3.97;100.00
43364;BME280;40636;52.424;-1.948;2023-03-01T05:31:57;101560.88;;;3.92;100.00
43364;BME280;40636;52.424;-1.948;2023-03-01T05:34:31;101562.72;;;3.91;100.00
43364;BME280;40636;52.424;-1.948;2023-03-01T05:36:58;101561.88;;;3.99;100.00
43364;BME280;40636;52.424;-1.948;2023-03-01T05:39:27;101565.09;;;3.94;100.00
43364;BME280;40636;52.424;-1.948;2023-03-01T05:41:55;101564.59;;;3.91;100.00
43364;BME280;40636;52.424;-1.948;2023-03-01T05:44:23;101560.50;;;3.95;100.00
43364;BME280;40636;52.424;-1.948;2023-03-01T05:46:50;101560.34;;;3.96;100.00
43364;BME280;40636;52.424;-1.948;2023-03-01T05:49:17;101558.66;;;3.95;100.00
43364;BME280;40636;52.424;-1.948;2023-03-01T05:51:48;101559.50;;;3.96;100.00
43364;BME280;40636;52.424;-1.948;2023-03-01T05:54:16;101563.59;;;4.00;100.00
43364;BME280;40636;52.424;-1.948;2023-03-01T05:56:43;101557.97;;;4.01;100.00
43364;BME280;40636;52.424;-1.948;2023-03-01T05:59:10;101564.94;;;4.04;100.00
43364;BME280;40636;52.424;-1.948;2023-03-01T06:01:37;101561.38;;;3.95;100.00
43364;BME280;40636;52.424;-1.948;2023-03-01T06:04:04;101557.63;;;3.96;100.00
43364;BME280;40636;52.424;-1.948;2023-03-01T06:06:35;101564.75;;;3.97;100.00
43364;BME280;40636;52.424;-1.948;2023-03-01T06:09:05;101560.34;;;3.96;100.00
43364;BME280;40636;52.424;-1.948;2023-03-01T06:11:34;101559.00;;;4.00;100.00
43364;BME280;40636;52.424;-1.948;2023-03-01T06:14:01;101560.34;;;3.96;100.00
43364;BME280;40636;52.424;-1.948;2023-03-01T06:16:28;101563.41;;;4.01;100.00
43364;BME280;40636;52.424;-1.948;2023-03-01T06:18:55;101554.94;;;3.96;100.00
43364;BME280;40636;52.424;-1.948;2023-03-01T06:21:22;101559.31;;;3.89;100.00
43364;BME280;40636;52.424;-1.948;2023-03-01T06:23:48;101557.97;;;3.93;100.00
43364;BME280;40636;52.424;-1.948;2023-03-01T06:26:15;101552.34;;;3.95;100.00
43364;BME280;40636;52.424;-1.948;2023-03-01T06:28:42;101548.31;;;3.91;100.00
43364;BME280;40636;52.424;-1.948;2023-03-01T06:31:08;101554.59;;;3.91;100.00
43364;BME280;40636;52.424;-1.948;2023-03-01T06:33:35;101561.38;;;3.95;100.00
43364;BME280;40636;52.424;-1.948;2023-03-01T06:36:02;101560.66;;;3.85;100.00
43364;BME280;40636;52.424;-1.948;2023-03-01T06:38:29;101557.06;;;3.76;100.00
43364;BME280;40636;52.424;-1.948;2023-03-01T06:40:56;101556.91;;;3.70;100.00
43364;BME280;40636;52.424;-1.948;2023-03-01T06:43:23;101557.75;;;3.70;100.00
43364;BME280;40636;52.424;-1.948;2023-03-01T06:45:50;101558.09;;;3.75;100.00
43364;BME280;40636;52.424;-1.948;2023-03-01T06:48:17;101557.06;;;3.76;100.00
43364;BME280;40636;52.424;-1.948;2023-03-01T06:50:44;101561.66;;;3.76;100.00
43364;BME280;40636;52.424;-1.948;2023-03-01T06:53:10;101562.38;;;3.78;100.00
43364;BME280;40636;52.424;-1.948;2023-03-01T06:55:37;101565.94;;;3.78;100.00
43364;BME280;40636;52.424;-1.948;2023-03-01T06:58:04;101568.66;;;3.87;100.00
43364;BME280;40636;52.424;-1.948;2023-03-01T07:00:31;101562.38;;;3.78;100.00
43364;BME280;40636;52.424;-1.948;2023-03-01T07:02:59;101569.31;;;3.80;100.00
43364;BME280;40636;52.424;-1.948;2023-03-01T07:05:26;101567.63;;;3.79;100.00
43364;BME280;40636;52.424;-1.948;2023-03-01T07:07:53;101566.44;;;3.82;100.00
43364;BME280;40636;52.424;-1.948;2023-03-01T07:10:20;101567.44;;;3.81;100.00
43364;BME280;40636;52.424;-1.948;2023-03-01T07:12:46;101567.44;;;3.81;100.00
43364;BME280;40636;52.424;-1.948;2023-03-01T07:15:13;101571.03;;;3.81;100.00
43364;BME280;40636;52.424;-1.948;2023-03-01T07:17:41;101567.81;;;3.86;100.00
43364;BME280;40636;52.424;-1.948;2023-03-01T07:20:11;101576.09;;;3.85;100.00
43364;BME280;40636;52.424;-1.948;2023-03-01T07:22:40;101580.69;;;3.84;100.00
43364;BME280;40636;52.424;-1.948;2023-03-01T07:25:09;101578.47;;;3.79;100.00
43364;BME280;40636;52.424;-1.948;2023-03-01T07:27:36;101575.94;;;3.78;100.00
43364;BME280;40636;52.424;-1.948;2023-03-01T07:30:03;101578.69;;;3.86;100.00
43364;BME280;40636;52.424;-1.948;2023-03-01T07:32:30;101589.38;;;3.88;100.00
43364;BME280;40636;52.424;-1.948;2023-03-01T07:34:57;101593.78;;;3.89;100.00
43364;BME280;40636;52.424;-1.948;2023-03-01T07:37:24;101591.22;;;3.87;100.00
43364;BME280;40636;52.424;-1.948;2023-03-01T07:39:50;101593.97;;;3.95;100.00
43364;BME280;40636;52.424;-1.948;2023-03-01T07:42:17;101604.31;;;3.92;100.00
43364;BME280;40636;52.424;-1.948;2023-03-01T07:44:44;101610.59;;;3.92;100.00
43364;BME280;40636;52.424;-1.948;2023-03-01T07:47:10;101609.03;;;3.90;100.00
43364;BME280;40636;52.424;-1.948;2023-03-01T07:49:37;101606.69;;;3.95;100.00
43364;BME280;40636;52.424;-1.948;2023-03-01T07:52:04;101602.13;;;3.95;100.00
43364;BME280;40636;52.424;-1.948;2023-03-01T07:54:30;101599.56;;;4.02;100.00
43364;BME280;40636;52.424;-1.948;2023-03-01T07:56:57;101603.47;;;4.07;100.00
43364;BME280;40636;52.424;-1.948;2023-03-01T07:59:24;101601.47;;;4.10;100.00
43364;BME280;40636;52.424;-1.948;2023-03-01T08:01:56;101593.66;;;4.15;100.00
43364;BME280;40636;52.424;-1.948;2023-03-01T08:04:23;101590.06;;;4.22;100.00
43364;BME280;40636;52.424;-1.948;2023-03-01T08:06:52;101584.47;;;4.16;100.00
43364;BME280;40636;52.424;-1.948;2023-03-01T08:09:18;101587.53;;;4.04;100.00
43364;BME280;40636;52.424;-1.948;2023-03-01T08:11:45;101581.94;;;4.06;100.00
43364;BME280;40636;52.424;-1.948;2023-03-01T08:14:12;101606.22;;;4.16;100.00
43364;BME280;40636;52.424;-1.948;2023-03-01T08:16:39;101606.41;;;4.14;100.00
43364;BME280;40636;52.424;-1.948;2023-03-01T08:19:07;101605.88;;;4.19;100.00
43364;BME280;40636;52.424;-1.948;2023-03-01T08:21:34;101598.91;;;4.16;100.00
43364;BME280;40636;52.424;-1.948;2023-03-01T08:24:02;101600.97;;;4.14;100.00
43364;BME280;40636;52.424;-1.948;2023-03-01T08:26:30;101607.25;;;4.15;100.00
43364;BME280;40636;52.424;-1.948;2023-03-01T08:28:57;101598.75;;;4.26;100.00
43364;BME280;40636;52.424;-1.948;2023-03-01T08:31:32;101597.91;;;4.25;100.00
43364;BME280;40636;52.424;-1.948;2023-03-01T08:34:04;101607.25;;;4.23;100.00
43364;BME280;40636;52.424;-1.948;2023-03-01T08:36:35;101595.38;;;4.32;100.00
43364;BME280;40636;52.424;-1.948;2023-03-01T08:39:03;101603.66;;;4.30;100.00
43364;BME280;40636;52.424;-1.948;2023-03-01T08:41:31;101603.50;;;4.24;100.00
43364;BME280;40636;52.424;-1.948;2023-03-01T08:43:57;101612.34;;;4.26;100.00
43364;BME280;40636;52.424;-1.948;2023-03-01T08:46:29;101600.09;;;4.30;100.00
43364;BME280;40636;52.424;-1.948;2023-03-01T08:48:56;101600.09;;;4.30;100.00
43364;BME280;40636;52.424;-1.948;2023-03-01T08:51:24;101610.16;;;4.38;100.00
43364;BME280;40636;52.424;-1.948;2023-03-01T08:53:51;101613.38;;;4.33;100.00
43364;BME280;40636;52.424;-1.948;2023-03-01T08:56:18;101613.69;;;4.22;100.00
43364;BME280;40636;52.424;-1.948;2023-03-01T08:58:47;101610.97;;;4.30;100.00
43364;BME280;40636;52.424;-1.948;2023-03-01T09:01:16;101615.75;;;4.28;100.00
43364;BME280;40636;52.424;-1.948;2023-03-01T09:03:44;101621.50;;;4.25;100.00
43364;BME280;40636;52.424;-1.948;2023-03-01T09:06:11;101616.75;;;4.19;100.00
43364;BME280;40636;52.424;-1.948;2023-03-01T09:08:41;101600.97;;;4.14;100.00
43364;BME280;40636;52.424;-1.948;2023-03-01T09:11:09;101603.84;;;4.21;100.00
43364;BME280;40636;52.424;-1.948;2023-03-01T09:13:36;101596.38;;;4.23;100.00
43364;BME280;40636;52.424;-1.948;2023-03-01T09:16:05;101594.16;;;4.26;100.00
43364;BME280;40636;52.424;-1.948;2023-03-01T09:18:33;101586.34;;;4.40;100.00
43364;BME280;40636;52.424;-1.948;2023-03-01T09:21:04;101574.63;;;4.47;100.00
43364;BME280;40636;52.424;-1.948;2023-03-01T09:23:38;101586.34;;;4.64;100.00
43364;BME280;40636;52.424;-1.948;2023-03-01T09:26:07;101579.38;;;4.78;100.00
43364;BME280;40636;52.424;-1.948;2023-03-01T09:28:36;101567.78;;;4.76;100.00
43364;BME280;40636;52.424;-1.948;2023-03-01T09:31:05;101565.28;;;4.58;100.00
43364;BME280;40636;52.424;-1.948;2023-03-01T09:33:33;101571.91;;;4.64;100.00
43364;BME280;40636;52.424;-1.948;2023-03-01T09:36:04;101561.56;;;4.59;100.00
43364;BME280;40636;52.424;-1.948;2023-03-01T09:38:33;101560.34;;;4.53;100.00
43364;BME280;40636;52.424;-1.948;2023-03-01T09:41:01;101565.78;;;4.53;100.00
43364;BME280;40636;52.424;-1.948;2023-03-01T09:43:42;101563.91;;;4.62;100.00
43364;BME280;40636;52.424;-1.948;2023-03-01T09:46:14;101561.38;;;4.61;100.00
43364;BME280;40636;52.424;-1.948;2023-03-01T09:48:50;101555.25;;;4.58;100.00
43364;BME280;40636;52.424;-1.948;2023-03-01T09:51:21;101550.81;;;4.66;100.00
43364;BME280;40636;52.424;-1.948;2023-03-01T09:53:49;101554.72;;;4.79;100.00
43364;BME280;40636;52.424;-1.948;2023-03-01T09:56:21;101553.03;;;4.70;100.00
43364;BME280;40636;52.424;-1.948;2023-03-01T10:07:41;101533.16;;;4.70;100.00
43364;BME280;40636;52.424;-1.948;2023-03-01T10:10:08;101529.56;;;4.77;100.00
43364;BME280;40636;52.424;-1.948;2023-03-01T10:12:40;101523.09;;;4.87;100.00
43364;BME280;40636;52.424;-1.948;2023-03-01T10:15:18;101517.47;;;4.88;100.00
43364;BME280;40636;52.424;-1.948;2023-03-01T10:17:56;101529.00;;;4.90;100.00
43364;BME280;40636;52.424;-1.948;2023-03-01T10:20:28;101519.78;;;4.99;100.00
43364;BME280;40636;52.424;-1.948;2023-03-01T10:22:56;101516.59;;;4.96;100.00
43364;BME280;40636;52.424;-1.948;2023-03-01T10:28:23;101509.19;;;5.13;100.00
43364;BME280;40636;52.424;-1.948;2023-03-01T10:30:52;101519.44;;;5.11;100.00
43364;BME280;40636;52.424;-1.948;2023-03-01T10:33:28;101504.13;;;5.09;100.00
43364;BME280;40636;52.424;-1.948;2023-03-01T10:35:56;101503.59;;;5.14;100.00
43364;BME280;40636;52.424;-1.948;2023-03-01T10:38:22;101502.56;;;5.15;100.00
43364;BME280;40636;52.424;-1.948;2023-03-01T10:41:04;101509.16;;;5.21;100.00
43364;BME280;40636;52.424;-1.948;2023-03-01T10:43:47;101507.00;;;5.08;100.00
43364;BME280;40636;52.424;-1.948;2023-03-01T10:46:35;101509.56;;;5.09;100.00
43364;BME280;40636;52.424;-1.948;2023-03-01T10:49:18;101496.44;;;5.13;100.00
43364;BME280;40636;52.424;-1.948;2023-03-01T10:51:48;101505.19;;;5.00;100.00
43364;BME280;40636;52.424;-1.948;2023-03-01T10:54:28;101503.13;;;5.02;100.00
43364;BME280;40636;52.424;-1.948;2023-03-01T10:56:57;101501.63;;;5.00;100.00
43364;BME280;40636;52.424;-1.948;2023-03-01T11:02:14;101486.06;;;5.17;100.00
43364;BME280;40636;52.424;-1.948;2023-03-01T11:05:01;101478.88;;;5.24;100.00
43364;BME280;40636;52.424;-1.948;2023-03-01T11:07:28;101478.47;;;5.35;100.00
43364;BME280;40636;52.424;-1.948;2023-03-01T11:09:56;101465.41;;;5.30;100.00
43364;BME280;40636;52.424;-1.948;2023-03-01T11:12:23;101464.22;;;5.33;100.00
43364;BME280;40636;52.424;-1.948;2023-03-01T11:14:53;101458.34;;;5.44;100.00
43364;BME280;40636;52.424;-1.948;2023-03-01T11:20:01;101459.13;;;5.53;100.00
43364;BME280;40636;52.424;-1.948;2023-03-01T11:22:30;101467.16;;;5.54;100.00
43364;BME280;40636;52.424;-1.948;2023-03-01T11:24:58;101457.50;;;5.44;100.00
43364;BME280;40636;52.424;-1.948;2023-03-01T11:27:43;101466.25;;;5.31;100.00
43364;BME280;40636;52.424;-1.948;2023-03-01T11:35:42;101451.75;;;5.39;100.00
43364;BME280;40636;52.424;-1.948;2023-03-01T11:38:21;101447.03;;;5.32;100.00
43364;BME280;40636;52.424;-1.948;2023-03-01T11:41:06;101449.56;;;5.34;100.00
43364;BME280;40636;52.424;-1.948;2023-03-01T11:43:52;101447.53;;;5.36;100.00
43364;BME280;40636;52.424;-1.948;2023-03-01T11:49:18;101457.00;;;5.40;100.00
43364;BME280;40636;52.424;-1.948;2023-03-01T11:54:48;101448.47;;;5.43;100.00
43364;BME280;40636;52.424;-1.948;2023-03-01T12:03:22;101434.06;;;5.80;100.00
43364;BME280;40636;52.424;-1.948;2023-03-01T12:06:02;101432.75;;;5.76;100.00
43364;BME280;40636;52.424;-1.948;2023-03-01T12:08:35;101439.84;;;5.63;100.00
43364;BME280;40636;52.424;-1.948;2023-03-01T12:30:33;101397.94;;;6.09;100.00
43364;BME280;40636;52.424;-1.948;2023-03-01T12:33:39;101389.75;;;6.09;100.00
43364;BME280;40636;52.424;-1.948;2023-03-01T12:38:50;101386.84;;;5.88;100.00
43364;BME280;40636;52.424;-1.948;2023-03-01T12:41:44;101389.66;;;5.80;100.00
43364;BME280;40636;52.424;-1.948;2023-03-01T12:44:34;101380.84;;;5.78;100.00
43364;BME280;40636;52.424;-1.948;2023-03-01T12:49:45;101367.34;;;5.99;100.00
43364;BME280;40636;52.424;-1.948;2023-03-01T12:52:33;101359.34;;;5.83;100.00
43364;BME280;40636;52.424;-1.948;2023-03-01T13:00:40;101333.38;;;5.95;100.00
43364;BME280;40636;52.424;-1.948;2023-03-01T13:03:36;101325.75;;;6.05;100.00
43364;BME280;40636;52.424;-1.948;2023-03-01T13:06:17;101318.50;;;6.13;100.00
43364;BME280;40636;52.424;-1.948;2023-03-01T13:08:58;101308.63;;;6.26;100.00
43364;BME280;40636;52.424;-1.948;2023-03-01T13:11:27;101304.97;;;6.34;100.00
43364;BME280;40636;52.424;-1.948;2023-03-01T13:16:51;101302.25;;;6.34;100.00
43364;BME280;40636;52.424;-1.948;2023-03-01T13:19:20;101302.34;;;6.26;100.00
43364;BME280;40636;52.424;-1.948;2023-03-01T13:21:48;101300.56;;;6.18;100.00
43364;BME280;40636;52.424;-1.948;2023-03-01T13:29:46;101290.66;;;5.88;100.00
43364;BME280;40636;52.424;-1.948;2023-03-01T13:32:33;101301.09;;;5.84;100.00
43364;BME280;40636;52.424;-1.948;2023-03-01T13:37:45;101297.03;;;5.80;100.00
43364;BME280;40636;52.424;-1.948;2023-03-01T13:42:45;101296.13;;;5.88;100.00
43364;BME280;40636;52.424;-1.948;2023-03-01T13:45:36;101284.38;;;5.72;100.00
43364;BME280;40636;52.424;-1.948;2023-03-01T13:48:15;101279.66;;;5.81;100.00
43364;BME280;40636;52.424;-1.948;2023-03-01T13:50:51;101273.56;;;5.79;100.00
43364;BME280;40636;52.424;-1.948;2023-03-01T13:53:22;101261.81;;;5.78;100.00
43364;BME280;40636;52.424;-1.948;2023-03-01T13:55:54;101265.31;;;5.72;100.00
43364;BME280;40636;52.424;-1.948;2023-03-01T13:58:32;101263.03;;;5.76;100.00
43364;BME280;40636;52.424;-1.948;2023-03-01T14:01:05;101252.25;;;5.82;100.00
43364;BME280;40636;52.424;-1.948;2023-03-01T14:03:39;101246.34;;;5.94;100.00
43364;BME280;40636;52.424;-1.948;2023-03-01T14:06:10;101244.94;;;5.98;100.00
43364;BME280;40636;52.424;-1.948;2023-03-01T14:08:44;101232.06;;;6.06;100.00
43364;BME280;40636;52.424;-1.948;2023-03-01T14:11:33;101233.09;;;6.20;100.00
43364;BME280;40636;52.424;-1.948;2023-03-01T14:19:48;101214.38;;;6.32;100.00
43364;BME280;40636;52.424;-1.948;2023-03-01T14:22:27;101207.34;;;6.44;100.00
43364;BME280;40636;52.424;-1.948;2023-03-01T14:24:56;101195.91;;;6.34;100.00
43364;BME280;40636;52.424;-1.948;2023-03-01T14:27:28;101196.59;;;6.21;100.00
43364;BME280;40636;52.424;-1.948;2023-03-01T14:29:59;101183.19;;;6.20;100.00
43364;BME280;40636;52.424;-1.948;2023-03-01T14:32:28;101194.84;;;6.14;100.00
43364;BME280;40636;52.424;-1.948;2023-03-01T14:34:57;101200.56;;;6.04;100.00
43364;BME280;40636;52.424;-1.948;2023-03-01T14:37:30;101193.84;;;6.00;100.00